< < Back
Terminal Aerodrome Forecast


Current Version              Previous Versions:   1  2  3  4  5  6  7  8  9  

Terminal Aerodrome Forecast

096
FTUS42 KCAE 222300
TAFAGS
TAF
KAGS 222329Z 2300/2324 05005KT 5SM -DZ BR OVC007
     FM230200 07003KT 2SM -RA BR OVC003
     FM231800 07005KT 2SM RA BR OVC007=

Latest METAR

288
SAUS70 KWBC 230200 RRF
MTRAGS
METAR KAGS 230153Z 06006KT 4SM BR OVC005 07/07 A2999 RMK AO2 SLP156
T00720067


USA.gov is the U.S. government's official web portal to all federal, state and local government web resources and services.